Time;durP1;ratioP1;P1;durP2;ratioP2;P2;SDS_P1;SDS_P2;PMS_P1;PMS_P2;Temp;Humidity;BMP_temperature;BMP_pressure;BME280_temperature;BME280_humidity;BME280_pressure;Samples;Min_cycle;Max_cycle;Signal;HPM_P1;HPM_P2
2021/11/17 02:27:33;;;;;;;0.95;0.77;;;6.50;99.90;;;;;;5068607;28;20246;-74
2021/11/17 02:30:23;;;;;;;0.70;0.55;;;6.40;99.90;;;;;;5067579;28;20184;-75
2021/11/17 02:33:09;;;;;;;2.58;2.00;;;6.50;99.90;;;;;;5068418;28;20194;-75
2021/11/17 02:35:59;;;;;;;2.10;2.00;;;6.40;99.90;;;;;;5069602;28;20153;-75
2021/11/17 02:38:45;;;;;;;0.50;0.40;;;6.40;99.90;;;;;;5068139;28;20172;-75
2021/11/17 02:41:10;;;;;;;1.45;1.35;;;6.40;99.90;;;;;;5047821;28;20176;-75
2021/11/17 02:44:16;;;;;;;3.97;3.63;;;6.40;99.90;;;;;;5049133;28;20209;-75
2021/11/17 02:46:51;;;;;;;0.47;0.47;;;6.40;99.90;;;;;;5045754;28;20267;-75
2021/11/17 02:49:29;;;;;;;1.05;1.05;;;6.40;99.90;;;;;;5066503;28;20290;-75
2021/11/17 02:52:20;;;;;;;1.85;1.75;;;6.40;99.90;;;;;;5050402;28;20161;-75
2021/11/17 02:55:04;;;;;;;0.40;0.40;;;6.40;99.90;;;;;;5029083;28;20294;-76
2021/11/17 02:57:35;;;;;;;1.95;0.98;;;6.40;99.90;;;;;;5025310;28;20216;-75
2021/11/17 03:00:39;;;;;;;1.80;1.58;;;6.40;99.90;;;;;;5054074;28;20177;-75
2021/11/17 03:03:17;;;;;;;1.02;0.98;;;6.50;99.90;;;;;;5019335;28;20215;-76
2021/11/17 03:05:58;;;;;;;2.03;1.60;;;6.50;99.90;;;;;;5066678;28;20196;-75
2021/11/17 03:08:42;;;;;;;2.22;2.10;;;6.50;99.90;;;;;;5049827;28;20183;-75
2021/11/17 03:11:10;;;;;;;1.00;1.00;;;6.50;99.90;;;;;;5033957;28;20187;-75
2021/11/17 03:13:57;;;;;;;1.52;1.42;;;6.50;99.90;;;;;;5049776;28;20169;-76
2021/11/17 03:16:43;;;;;;;7.13;1.17;;;6.50;99.90;;;;;;5049936;28;20194;-76
2021/11/17 03:19:17;;;;;;;0.93;0.93;;;6.50;99.90;;;;;;5049639;28;20205;-75
2021/11/17 03:22:04;;;;;;;0.85;0.60;;;6.50;99.90;;;;;;5053156;28;20187;-75
2021/11/17 03:24:30;;;;;;;5.78;1.38;;;6.50;99.90;;;;;;5067095;28;20195;-76
2021/11/17 03:27:25;;;;;;;1.90;1.80;;;6.50;99.90;;;;;;5067223;28;20165;-75
2021/11/17 03:30:15;;;;;;;2.47;2.28;;;6.50;99.90;;;;;;5067976;28;20204;-75
2021/11/17 03:33:00;;;;;;;0.95;0.95;;;6.50;99.90;;;;;;5068563;28;20157;-75
2021/11/17 03:35:52;;;;;;;0.75;0.75;;;6.50;99.90;;;;;;5050496;28;20534;-75
2021/11/17 03:38:30;;;;;;;0.47;0.47;;;6.50;99.90;;;;;;5052077;28;20171;-75
2021/11/17 03:40:58;;;;;;;1.25;1.25;;;6.50;99.90;;;;;;5051291;28;20196;-76
2021/11/17 03:43:50;;;;;;;0.73;0.73;;;6.50;99.90;;;;;;5067405;28;20185;-75
2021/11/17 03:46:16;;;;;;;0.90;0.90;;;6.50;99.90;;;;;;5067413;28;20195;-75
2021/11/17 03:48:51;;;;;;;2.15;1.92;;;6.50;99.90;;;;;;5066993;28;20172;-75
2021/11/17 03:51:50;;;;;;;0.95;0.95;;;6.60;99.90;;;;;;5068319;28;20167;-76
2021/11/17 03:54:28;;;;;;;1.42;1.42;;;6.50;99.90;;;;;;5068349;28;20157;-75
2021/11/17 03:57:35;;;;;;;0.98;0.98;;;6.40;99.90;;;;;;5066867;28;20220;-75
2021/11/17 04:00:33;;;;;;;1.10;0.85;;;6.40;99.90;;;;;;5066977;28;20242;-76
2021/11/17 04:03:11;;;;;;;1.05;1.05;;;6.40;99.90;;;;;;5053242;28;20210;-76
2021/11/17 04:05:46;;;;;;;1.70;1.65;;;6.40;99.90;;;;;;5054023;28;20169;-75
2021/11/17 04:08:45;;;;;;;0.47;0.47;;;6.40;99.90;;;;;;5070477;28;20227;-76
2021/11/17 04:11:17;;;;;;;3.05;2.65;;;6.30;99.90;;;;;;5067543;28;20184;-76
2021/11/17 04:13:52;;;;;;;7.68;3.83;;;6.40;99.90;;;;;;5054077;28;20618;-75
2021/11/17 04:17:01;;;;;;;0.25;0.25;;;6.40;99.90;;;;;;5071878;28;20171;-75
2021/11/17 04:19:26;;;;;;;2.35;2.08;;;6.40;99.90;;;;;;5056260;28;20196;-76
2021/11/17 04:22:13;;;;;;;0.88;0.88;;;6.40;99.90;;;;;;5070220;28;20169;-76
2021/11/17 04:25:16;;;;;;;4.47;1.73;;;6.40;99.90;;;;;;5070469;28;20208;-75
2021/11/17 04:27:51;;;;;;;0.63;0.63;;;6.40;99.90;;;;;;5070592;28;20186;-75
2021/11/17 04:30:19;;;;;;;0.95;0.95;;;6.40;99.90;;;;;;5071530;28;20192;-76
2021/11/17 04:33:04;;;;;;;4.38;2.08;;;6.50;99.90;;;;;;5070199;28;20161;-75
2021/11/17 04:35:48;;;;;;;0.10;0.10;;;6.50;99.90;;;;;;5054044;28;20640;-75
2021/11/17 04:38:38;;;;;;;0.85;0.85;;;6.50;99.90;;;;;;5071092;28;20164;-74
2021/11/17 04:41:22;;;;;;;1.52;1.45;;;6.50;99.90;;;;;;5071119;28;20153;-75
2021/11/17 04:43:54;;;;;;;0.80;0.80;;;6.40;99.90;;;;;;5071011;28;20195;-75
2021/11/17 04:46:52;;;;;;;0.28;0.28;;;6.40;99.90;;;;;;5071094;28;20168;-74
2021/11/17 04:49:25;;;;;;;2.47;2.28;;;6.50;99.90;;;;;;5069763;28;20205;-74
2021/11/17 04:52:03;;;;;;;0.98;0.98;;;6.50;99.90;;;;;;5069578;28;20161;-74
2021/11/17 04:54:37;;;;;;;0.20;0.20;;;6.50;99.90;;;;;;5069629;28;20202;-74
2021/11/17 04:57:05;;;;;;;2.33;1.60;;;6.50;99.90;;;;;;5069094;28;20224;-74
2021/11/17 04:59:39;;;;;;;1.83;1.13;;;6.40;99.90;;;;;;5069425;28;20196;-75
2021/11/17 05:02:28;;;;;;;2.83;1.23;;;6.50;99.90;;;;;;5053297;28;20217;-74
2021/11/17 05:05:18;;;;;;;0.77;0.77;;;6.50;99.90;;;;;;5070285;28;20216;-75
2021/11/17 05:07:50;;;;;;;0.95;0.95;;;6.50;99.90;;;;;;5069827;28;20185;-75
2021/11/17 05:10:25;;;;;;;0.60;0.55;;;6.50;99.90;;;;;;5070500;28;20196;-75
2021/11/17 05:12:57;;;;;;;1.40;1.40;;;6.50;99.90;;;;;;5070291;28;20164;-75
2021/11/17 05:16:08;;;;;;;0.47;0.47;;;6.50;99.90;;;;;;5068969;28;20189;-74
2021/11/17 05:19:07;;;;;;;1.95;1.85;;;6.40;99.90;;;;;;5051581;28;20267;-75
2021/11/17 05:21:49;;;;;;;2.03;1.92;;;6.40;99.90;;;;;;5051558;28;20165;-75
2021/11/17 05:24:18;;;;;;;3.33;1.65;;;6.40;99.90;;;;;;5050243;28;20673;-74
2021/11/17 05:27:05;;;;;;;0.17;0.17;;;6.40;99.90;;;;;;5070174;28;20153;-74
2021/11/17 05:29:40;;;;;;;0.70;0.70;;;6.50;99.90;;;;;;5068846;28;20228;-75
2021/11/17 05:32:09;;;;;;;0.70;0.70;;;6.40;99.90;;;;;;5070125;28;20170;-75
2021/11/17 05:34:41;;;;;;;2.22;2.00;;;6.40;99.90;;;;;;5070256;28;20539;-74
2021/11/17 05:37:31;;;;;;;1.10;1.10;;;6.40;99.90;;;;;;5068755;28;20168;-75
2021/11/17 05:40:30;;;;;;;1.42;1.40;;;6.40;99.90;;;;;;5054426;28;20543;-75
2021/11/17 05:43:20;;;;;;;0.38;0.38;;;6.40;99.90;;;;;;5068647;28;20191;-74
2021/11/17 05:46:02;;;;;;;1.65;1.55;;;6.40;99.90;;;;;;5068238;28;20169;-75
2021/11/17 05:48:33;;;;;;;1.33;1.33;;;6.40;99.90;;;;;;5068532;28;20221;-74
2021/11/17 05:51:20;;;;;;;1.38;1.38;;;6.40;99.90;;;;;;5068265;28;20161;-75
2021/11/17 05:54:17;;;;;;;0.63;0.52;;;6.50;99.90;;;;;;5068177;28;20165;-75
2021/11/17 05:57:01;;;;;;;2.08;1.95;;;6.50;99.90;;;;;;5053925;28;20704;-75
2021/11/17 05:59:51;;;;;;;2.55;1.33;;;6.50;99.90;;;;;;5068302;28;20202;-74
2021/11/17 06:02:44;;;;;;;0.57;0.57;;;6.50;99.90;;;;;;5068094;28;20187;-75
2021/11/17 06:05:10;;;;;;;0.98;0.93;;;6.50;99.90;;;;;;5068447;28;20203;-74
2021/11/17 06:07:36;;;;;;;0.52;0.52;;;6.50;99.90;;;;;;5069209;28;20165;-74
2021/11/17 06:10:29;;;;;;;1.17;1.17;;;6.50;99.90;;;;;;5069107;28;20192;-75
2021/11/17 06:12:56;;;;;;;0.50;0.43;;;6.40;99.90;;;;;;5069374;28;20163;-75
2021/11/17 06:15:22;;;;;;;1.23;1.20;;;6.50;99.90;;;;;;5067893;28;20172;-75
2021/11/17 06:17:52;;;;;;;1.52;1.38;;;6.50;99.90;;;;;;5067850;28;20186;-74
2021/11/17 06:20:20;;;;;;;0.70;0.70;;;6.40;99.90;;;;;;5067826;28;20196;-74
2021/11/17 06:22:54;;;;;;;0.93;0.93;;;6.40;99.90;;;;;;5069376;28;20187;-76
2021/11/17 06:25:22;;;;;;;0.60;0.60;;;6.40;99.90;;;;;;5067971;28;20203;-74
2021/11/17 06:27:54;;;;;;;0.70;0.70;;;6.40;99.90;;;;;;5067810;28;20183;-74
2021/11/17 06:30:22;;;;;;;0.55;0.55;;;6.50;99.90;;;;;;5068792;28;20196;-74
2021/11/17 06:32:50;;;;;;;0.30;0.30;;;6.50;99.90;;;;;;5068811;28;20164;-74
2021/11/17 06:35:16;;;;;;;0.95;0.88;;;6.50;99.90;;;;;;5067505;28;20164;-74
2021/11/17 06:37:44;;;;;;;1.27;1.25;;;6.50;99.90;;;;;;5067705;28;20168;-74
2021/11/17 06:40:15;;;;;;;0.65;0.65;;;6.60;99.90;;;;;;5068632;28;20203;-74
2021/11/17 06:42:53;;;;;;;0.70;0.70;;;6.50;99.90;;;;;;5065568;28;20226;-74
2021/11/17 06:45:32;;;;;;;1.30;1.30;;;6.60;99.90;;;;;;5065451;28;20211;-74
2021/11/17 06:47:59;;;;;;;1.45;1.45;;;6.60;99.90;;;;;;5067464;28;20164;-73
2021/11/17 06:50:26;;;;;;;0.68;0.68;;;6.60;99.90;;;;;;5068510;28;20199;-74
2021/11/17 06:52:52;;;;;;;1.35;1.25;;;6.60;99.90;;;;;;5067346;28;20191;-74
2021/11/17 06:55:19;;;;;;;0.95;0.95;;;6.60;99.90;;;;;;5068393;28;20167;-74
2021/11/17 06:57:46;;;;;;;2.15;2.05;;;6.60;99.90;;;;;;5068924;28;20195;-74
2021/11/17 07:00:16;;;;;;;7.57;2.10;;;6.60;99.90;;;;;;5067258;28;20196;-74
2021/11/17 07:02:43;;;;;;;1.20;1.20;;;6.50;99.90;;;;;;5066923;28;20179;-74
2021/11/17 07:05:09;;;;;;;0.65;0.65;;;6.50;99.90;;;;;;5068359;28;20207;-74
2021/11/17 07:07:36;;;;;;;0.50;0.50;;;6.50;99.90;;;;;;5067269;28;20161;-74
2021/11/17 07:10:04;;;;;;;0.95;0.95;;;6.60;99.90;;;;;;5067237;28;20197;-74
2021/11/17 07:12:30;;;;;;;0.55;0.55;;;6.60;99.90;;;;;;5068575;28;20153;-74
2021/11/17 07:14:55;;;;;;;4.70;4.07;;;6.60;99.90;;;;;;5067249;28;20251;-74
2021/11/17 07:17:22;;;;;;;0.63;0.63;;;6.60;99.90;;;;;;5068618;28;20195;-73
2021/11/17 07:19:47;;;;;;;0.63;0.63;;;6.60;99.90;;;;;;5067121;28;20250;-73
2021/11/17 07:22:13;;;;;;;1.05;1.05;;;6.60;99.90;;;;;;5068499;28;20161;-74
2021/11/17 07:24:40;;;;;;;1.75;1.50;;;6.60;99.90;;;;;;5068324;28;20251;-76
2021/11/17 07:27:11;;;;;;;0.75;0.75;;;6.60;99.90;;;;;;5068239;28;20246;-74
2021/11/17 07:29:38;;;;;;;1.08;0.80;;;6.60;99.90;;;;;;5066780;28;20161;-74
2021/11/17 07:32:05;;;;;;;1.60;1.48;;;6.60;99.90;;;;;;5068156;28;20165;-77
2021/11/17 07:34:31;;;;;;;4.63;2.05;;;6.60;99.90;;;;;;5068324;28;20184;-72
2021/11/17 07:36:57;;;;;;;1.92;1.90;;;6.60;99.90;;;;;;5070833;28;20164;-76
2021/11/17 07:39:24;;;;;;;0.63;0.63;;;6.60;99.90;;;;;;5070777;28;20161;-76
2021/11/17 07:41:52;;;;;;;4.30;1.63;;;6.60;99.90;;;;;;5070916;28;20175;-75
2021/11/17 07:44:21;;;;;;;0.82;0.82;;;6.70;99.90;;;;;;5070817;28;20199;-76
2021/11/17 07:46:50;;;;;;;1.83;1.73;;;6.60;99.90;;;;;;5070659;28;20176;-75
2021/11/17 07:49:16;;;;;;;1.75;1.00;;;6.60;99.90;;;;;;5072124;28;20161;-76
2021/11/17 07:51:44;;;;;;;3.83;2.70;;;6.60;99.90;;;;;;5070783;28;20192;-76
2021/11/17 07:54:11;;;;;;;0.93;0.93;;;6.70;99.90;;;;;;5072094;28;20217;-77
2021/11/17 07:56:40;;;;;;;3.63;3.13;;;6.70;99.90;;;;;;5071871;28;20227;-76
2021/11/17 07:59:10;;;;;;;1.40;1.30;;;6.70;99.90;;;;;;5070641;28;20211;-76
2021/11/17 08:01:36;;;;;;;1.55;1.45;;;6.70;99.90;;;;;;5071979;28;20223;-75
2021/11/17 08:04:03;;;;;;;1.10;1.00;;;6.70;99.90;;;;;;5071983;28;20189;-76
2021/11/17 08:06:29;;;;;;;1.45;1.35;;;6.70;99.90;;;;;;5070669;28;20160;-76
2021/11/17 08:08:56;;;;;;;3.85;2.05;;;6.70;99.90;;;;;;5071715;28;20216;-77
2021/11/17 08:11:23;;;;;;;1.73;1.73;;;6.80;99.90;;;;;;5070564;28;20161;-76
2021/11/17 08:13:50;;;;;;;0.73;0.65;;;6.70;99.90;;;;;;5071945;28;20172;-76
2021/11/17 08:16:17;;;;;;;0.68;0.68;;;6.70;99.90;;;;;;5071702;28;20666;-76
2021/11/17 08:18:43;;;;;;;0.90;0.88;;;6.80;99.90;;;;;;5070450;28;20226;-75
2021/11/17 08:21:13;;;;;;;6.38;2.28;;;6.80;99.90;;;;;;5070339;28;20175;-75
2021/11/17 08:23:39;;;;;;;20.70;4.88;;;6.70;99.90;;;;;;5071535;28;20190;-75
2021/11/17 08:26:06;;;;;;;1.05;1.05;;;6.80;99.90;;;;;;5070185;28;20183;-76
2021/11/17 08:28:32;;;;;;;0.68;0.68;;;6.90;99.90;;;;;;5070095;28;20199;-77
2021/11/17 08:30:58;;;;;;;1.33;1.20;;;6.90;99.90;;;;;;5071600;28;20242;-76
2021/11/17 08:33:24;;;;;;;2.92;2.75;;;6.90;99.90;;;;;;5070138;28;20172;-76
2021/11/17 08:35:50;;;;;;;0.17;0.17;;;6.90;99.90;;;;;;5071618;28;20158;-77
2021/11/17 08:38:21;;;;;;;0.32;0.32;;;6.90;99.90;;;;;;5070020;28;20199;-75
2021/11/17 08:40:51;;;;;;;1.40;1.40;;;6.90;99.90;;;;;;5069740;28;20157;-76
2021/11/17 08:43:18;;;;;;;4.22;2.40;;;6.90;99.90;;;;;;5071124;28;20164;-76
2021/11/17 08:45:45;;;;;;;1.70;1.60;;;7.00;99.90;;;;;;5069726;28;20192;-76
2021/11/17 08:48:11;;;;;;;3.92;2.00;;;6.90;99.90;;;;;;5069054;28;20287;-77
2021/11/17 08:50:38;;;;;;;1.27;1.20;;;6.90;99.90;;;;;;5069964;28;20164;-75
2021/11/17 08:53:06;;;;;;;0.10;0.10;;;7.00;99.90;;;;;;5071135;28;20164;-75
2021/11/17 08:55:33;;;;;;;0.75;0.75;;;7.00;99.90;;;;;;5069509;28;20752;-76
2021/11/17 08:58:01;;;;;;;8.77;1.38;;;7.10;99.90;;;;;;5069355;28;20216;-77
2021/11/17 09:00:28;;;;;;;1.40;1.13;;;7.00;99.90;;;;;;5069765;28;20180;-76
2021/11/17 09:02:56;;;;;;;3.45;1.10;;;7.00;99.90;;;;;;5070795;28;20226;-76
2021/11/17 09:05:26;;;;;;;3.13;2.85;;;7.10;99.90;;;;;;5070811;28;20189;-76
2021/11/17 09:07:52;;;;;;;0.20;0.20;;;7.10;99.90;;;;;;5070717;28;20202;-76
2021/11/17 09:10:23;;;;;;;0.63;0.63;;;7.20;99.90;;;;;;5070904;28;20168;-76
2021/11/17 09:12:50;;;;;;;2.88;2.67;;;7.20;99.90;;;;;;5069547;28;20176;-75
2021/11/17 09:15:18;;;;;;;2.28;2.15;;;7.10;99.90;;;;;;5069191;28;20177;-75
2021/11/17 09:17:45;;;;;;;0.20;0.20;;;7.00;99.90;;;;;;5070462;28;20192;-76
2021/11/17 09:20:14;;;;;;;1.08;0.77;;;7.10;99.90;;;;;;5070553;28;20161;-76
2021/11/17 09:22:41;;;;;;;2.53;1.77;;;7.20;99.90;;;;;;5069347;28;20248;-75
2021/11/17 09:25:10;;;;;;;1.00;1.00;;;7.20;99.90;;;;;;5070426;28;20261;-76
2021/11/17 09:27:37;;;;;;;1.40;1.40;;;7.30;99.90;;;;;;5070495;28;20193;-75
2021/11/17 09:30:05;;;;;;;1.88;1.77;;;7.30;99.90;;;;;;5068988;28;20172;-76
2021/11/17 09:32:32;;;;;;;2.50;1.38;;;7.40;99.90;;;;;;5068958;28;20241;-76
2021/11/17 09:35:06;;;;;;;3.75;1.60;;;7.40;99.90;;;;;;5070270;28;20618;-76
2021/11/17 09:37:32;;;;;;;0.75;0.75;;;7.40;99.90;;;;;;5069926;28;20192;-76
2021/11/17 09:39:58;;;;;;;0.98;0.98;;;7.50;99.90;;;;;;5068664;28;20172;-76
2021/11/17 09:42:25;;;;;;;2.17;2.08;;;7.60;99.90;;;;;;5070205;28;20276;-75
2021/11/17 09:44:52;;;;;;;10.43;2.30;;;7.60;99.90;;;;;;5068474;28;20196;-76
2021/11/17 09:47:23;;;;;;;7.55;4.18;;;7.60;99.90;;;;;;5069855;28;20192;-76
2021/11/17 09:49:57;;;;;;;0.20;0.20;;;7.60;99.90;;;;;;5068685;28;20165;-76
2021/11/17 09:52:45;;;;;;;0.45;0.45;;;7.70;99.90;;;;;;5068707;28;20201;-76
2021/11/17 09:55:28;;;;;;;0.73;0.73;;;7.80;99.90;;;;;;5061379;28;20214;-77
2021/11/17 09:58:20;;;;;;;1.73;1.00;;;7.70;99.90;;;;;;5050294;28;20201;-75
2021/11/17 10:00:55;;;;;;;11.25;2.17;;;7.60;99.90;;;;;;5068254;28;20172;-75
2021/11/17 10:03:36;;;;;;;1.98;1.88;;;7.60;99.90;;;;;;5059093;28;20176;-75
2021/11/17 10:11:57;;;;;;;0.90;0.90;;;7.70;99.90;;;;;;5056992;28;20217;-76
2021/11/17 10:14:30;;;;;;;1.90;1.80;;;7.70;99.90;;;;;;5069542;28;20186;-75
2021/11/17 10:16:57;;;;;;;1.80;1.70;;;7.70;99.90;;;;;;5069495;28;20188;-76
2021/11/17 10:19:33;;;;;;;2.25;1.67;;;7.70;99.90;;;;;;5068202;28;20168;-75
2021/11/17 10:22:09;;;;;;;1.55;1.45;;;7.80;99.90;;;;;;5068135;28;20175;-75
2021/11/17 10:24:47;;;;;;;1.77;1.67;;;7.70;99.90;;;;;;5069274;28;20192;-75
2021/11/17 10:27:29;;;;;;;2.60;2.40;;;7.70;99.90;;;;;;5067969;28;20223;-76
2021/11/17 10:30:06;;;;;;;4.38;4.05;;;7.70;99.90;;;;;;5050639;28;20177;-76
2021/11/17 10:32:37;;;;;;;2.08;1.98;;;7.60;99.90;;;;;;5049321;28;20161;-76
2021/11/17 10:35:35;;;;;;;2.03;1.92;;;7.70;99.90;;;;;;5047570;28;20176;-75
2021/11/17 10:38:24;;;;;;;0.77;0.77;;;7.80;99.90;;;;;;5047333;28;20273;-75
2021/11/17 10:40:54;;;;;;;0.22;0.22;;;7.80;99.90;;;;;;5048879;28;20193;-76
2021/11/17 10:43:32;;;;;;;3.70;2.42;;;7.90;99.90;;;;;;5049079;28;20633;-75
2021/11/17 10:46:17;;;;;;;0.85;0.85;;;7.90;99.90;;;;;;5047749;28;20165;-76
2021/11/17 10:49:08;;;;;;;1.20;1.20;;;7.90;99.90;;;;;;5047689;28;20193;-75
2021/11/17 10:51:48;;;;;;;4.40;1.13;;;7.90;99.90;;;;;;5048920;28;20182;-75
2021/11/17 10:54:18;;;;;;;1.38;1.38;;;7.90;99.90;;;;;;5048924;28;20181;-76
2021/11/17 10:56:58;;;;;;;1.20;1.20;;;7.90;99.90;;;;;;5063715;28;20292;-76
2021/11/17 10:59:24;;;;;;;2.10;1.90;;;7.90;99.90;;;;;;5068643;28;20203;-75
2021/11/17 11:01:51;;;;;;;1.25;1.25;;;7.90;99.90;;;;;;5068655;28;20169;-75
2021/11/17 11:04:25;;;;;;;1.17;1.17;;;7.90;99.90;;;;;;5067460;28;20204;-76
2021/11/17 11:06:57;;;;;;;0.88;0.88;;;8.00;99.90;;;;;;5067286;28;20630;-75
2021/11/17 11:09:29;;;;;;;0.70;0.70;;;8.00;99.90;;;;;;5067774;28;20259;-75
2021/11/17 11:11:58;;;;;;;0.40;0.40;;;8.00;99.90;;;;;;5075473;28;20282;-75
2021/11/17 11:14:38;;;;;;;0.38;0.38;;;8.00;99.90;;;;;;5075385;28;20157;-76
2021/11/17 11:17:24;;;;;;;2.25;0.82;;;8.00;99.90;;;;;;5075257;28;20278;-76
2021/11/17 11:19:51;;;;;;;1.92;1.80;;;7.90;99.90;;;;;;5075399;28;20243;-75
2021/11/17 11:22:22;;;;;;;1.15;1.13;;;7.90;99.90;;;;;;5075191;28;20160;-76
2021/11/17 11:24:54;;;;;;;0.68;0.68;;;7.90;99.90;;;;;;5075256;28;20185;-75
2021/11/17 11:27:35;;;;;;;0.47;0.47;;;7.80;99.90;;;;;;5075030;28;20188;-75
2021/11/17 11:30:04;;;;;;;3.65;3.20;;;7.80;99.90;;;;;;5075106;28;20187;-76
2021/11/17 11:32:29;;;;;;;3.33;1.90;;;7.70;99.90;;;;;;5075203;28;20165;-75
2021/11/17 11:34:58;;;;;;;2.10;2.00;;;7.70;99.90;;;;;;5074025;28;20183;-76
2021/11/17 11:37:24;;;;;;;3.40;1.75;;;7.70;99.90;;;;;;5073781;28;20268;-75
2021/11/17 11:39:57;;;;;;;2.38;2.28;;;7.70;99.90;;;;;;5073480;28;20180;-76
2021/11/17 11:42:38;;;;;;;0.15;0.15;;;7.70;99.90;;;;;;5075239;28;20160;-75
2021/11/17 11:45:07;;;;;;;5.47;2.50;;;7.70;99.90;;;;;;5073579;28;20249;-76
2021/11/17 11:47:53;;;;;;;1.08;1.08;;;7.70;99.90;;;;;;5075147;28;20189;-76
2021/11/17 11:50:32;;;;;;;0.32;0.32;;;7.70;99.90;;;;;;5074046;28;20207;-75
2021/11/17 11:53:16;;;;;;;0.55;0.55;;;7.70;99.90;;;;;;5075015;28;20160;-75
2021/11/17 11:55:53;;;;;;;1.60;1.50;;;7.70;99.90;;;;;;5073280;28;20224;-77
2021/11/17 11:58:20;;;;;;;0.32;0.32;;;7.80;99.90;;;;;;5074948;28;20226;-76
2021/11/17 12:01:03;;;;;;;3.15;2.90;;;7.80;99.90;;;;;;5073692;28;20172;-76
2021/11/17 12:03:34;;;;;;;2.50;2.30;;;7.80;99.90;;;;;;5074986;28;20175;-75
2021/11/17 12:06:14;;;;;;;0.20;0.20;;;7.80;99.90;;;;;;5075141;28;20149;-76
2021/11/17 12:09:07;;;;;;;1.40;1.30;;;7.70;99.90;;;;;;5073246;28;20196;-75
2021/11/17 12:11:34;;;;;;;0.60;0.60;;;7.60;99.90;;;;;;5074780;28;20157;-76
2021/11/17 12:14:07;;;;;;;3.53;2.95;;;7.70;99.90;;;;;;5074557;28;20184;-76
2021/11/17 12:16:44;;;;;;;3.10;2.95;;;7.70;99.90;;;;;;5073242;28;20268;-76
2021/11/17 12:19:25;;;;;;;1.38;1.38;;;7.70;99.90;;;;;;5074903;28;20157;-76
2021/11/17 12:22:03;;;;;;;0.47;0.47;;;7.70;99.90;;;;;;5070736;28;20176;-75
2021/11/17 12:24:42;;;;;;;2.10;2.00;;;7.70;99.90;;;;;;5071425;28;20185;-76
2021/11/17 12:27:13;;;;;;;0.20;0.20;;;7.70;99.90;;;;;;5071580;28;20181;-76
2021/11/17 12:29:45;;;;;;;0.30;0.30;;;7.70;99.90;;;;;;5070237;28;20169;-76
2021/11/17 12:32:18;;;;;;;0.52;0.52;;;7.60;99.90;;;;;;5070085;28;20199;-76
2021/11/17 12:34:44;;;;;;;1.83;1.73;;;7.60;99.90;;;;;;5069875;28;20196;-75
2021/11/17 12:37:20;;;;;;;1.30;1.30;;;7.50;99.90;;;;;;5071145;28;20207;-75
2021/11/17 12:40:04;;;;;;;3.30;1.90;;;7.50;99.90;;;;;;5069526;28;20176;-75
2021/11/17 12:42:37;;;;;;;0.80;0.63;;;7.60;99.90;;;;;;5070769;28;20167;-76
2021/11/17 12:45:18;;;;;;;1.75;1.67;;;7.60;99.90;;;;;;5070217;28;20196;-75
2021/11/17 12:48:07;;;;;;;2.38;2.28;;;7.60;99.90;;;;;;5068974;28;20196;-76
2021/11/17 12:50:45;;;;;;;0.55;0.43;;;7.70;99.90;;;;;;5070346;28;20188;-75
2021/11/17 12:53:21;;;;;;;2.92;1.48;;;7.70;99.90;;;;;;5070537;28;20184;-75
2021/11/17 12:55:52;;;;;;;12.48;1.50;;;7.70;99.90;;;;;;5068883;28;20230;-76
2021/11/17 12:58:55;;;;;;;1.25;1.20;;;7.60;99.90;;;;;;5069311;28;20205;-76
2021/11/17 13:01:30;;;;;;;2.53;2.33;;;7.60;99.90;;;;;;5068492;28;20184;-75
2021/11/17 13:04:25;;;;;;;1.38;1.38;;;7.60;99.90;;;;;;5069402;28;20246;-75
2021/11/17 13:07:05;;;;;;;5.35;2.85;;;7.70;99.90;;;;;;5070022;28;20195;-74
2021/11/17 13:09:55;;;;;;;1.55;1.05;;;7.70;99.90;;;;;;5070772;28;20153;-75
2021/11/17 13:12:33;;;;;;;0.80;0.80;;;7.80;99.90;;;;;;5070617;28;20165;-75
2021/11/17 13:15:22;;;;;;;2.45;2.25;;;7.80;99.90;;;;;;5070494;28;20168;-75
2021/11/17 13:17:48;;;;;;;0.63;0.63;;;7.70;99.90;;;;;;5069324;28;20689;-76
2021/11/17 13:20:14;;;;;;;3.60;2.45;;;7.80;99.90;;;;;;5069177;28;20581;-75
2021/11/17 13:22:50;;;;;;;1.05;1.00;;;7.80;99.90;;;;;;5069120;28;20173;-75
2021/11/17 13:25:21;;;;;;;1.35;1.30;;;7.80;99.90;;;;;;5070328;28;20214;-75
2021/11/17 13:27:48;;;;;;;2.88;2.75;;;7.80;99.90;;;;;;5069888;28;20193;-75
2021/11/17 13:30:26;;;;;;;0.55;0.55;;;7.70;99.90;;;;;;5070256;28;20153;-76
2021/11/17 13:32:53;;;;;;;0.65;0.65;;;7.70;99.90;;;;;;5070093;28;20157;-75
2021/11/17 13:35:39;;;;;;;1.05;0.75;;;7.60;99.90;;;;;;5068663;28;20179;-74
2021/11/17 13:38:16;;;;;;;1.70;1.60;;;7.60;99.90;;;;;;5068736;28;20610;-75
2021/11/17 13:40:45;;;;;;;1.65;1.55;;;7.60;99.90;;;;;;5068739;28;20266;-75
2021/11/17 13:43:13;;;;;;;3.50;0.90;;;7.60;99.90;;;;;;5070188;28;20172;-75
2021/11/17 13:45:40;;;;;;;1.90;1.80;;;7.80;99.90;;;;;;5068522;28;20227;-75
2021/11/17 13:48:07;;;;;;;2.38;2.28;;;7.80;99.90;;;;;;5068457;28;20193;-75
2021/11/17 13:50:36;;;;;;;0.88;0.88;;;7.70;99.90;;;;;;5069921;28;20183;-75
2021/11/17 13:53:05;;;;;;;5.28;3.92;;;7.70;99.90;;;;;;5069689;28;20160;-76
2021/11/17 13:55:34;;;;;;;2.38;1.10;;;7.80;99.90;;;;;;5069346;28;20220;-75
2021/11/17 13:58:03;;;;;;;3.92;1.50;;;7.70;99.90;;;;;;5064559;28;20205;-74
2021/11/17 14:00:29;;;;;;;1.35;1.25;;;7.70;99.90;;;;;;5049632;28;20158;-75
2021/11/17 14:02:55;;;;;;;0.40;0.40;;;7.70;99.90;;;;;;5058613;28;20165;-76
2021/11/17 14:05:22;;;;;;;0.30;0.30;;;7.70;99.90;;;;;;5069514;28;20200;-75
2021/11/17 14:07:49;;;;;;;0.50;0.50;;;7.70;99.90;;;;;;5069580;28;20192;-75
2021/11/17 14:10:17;;;;;;;1.17;1.10;;;7.60;99.90;;;;;;5068074;28;20169;-75
2021/11/17 14:12:44;;;;;;;0.90;0.88;;;7.70;99.90;;;;;;5068319;28;20169;-76
2021/11/17 14:15:11;;;;;;;0.88;0.88;;;7.60;99.90;;;;;;5069543;28;20168;-76
2021/11/17 14:17:37;;;;;;;0.30;0.30;;;7.60;99.90;;;;;;5069336;28;20605;-76
2021/11/17 14:20:06;;;;;;;8.38;4.05;;;7.60;99.90;;;;;;5067964;28;20211;-75
2021/11/17 14:22:33;;;;;;;1.75;1.75;;;7.60;99.90;;;;;;5067950;28;20179;-76
2021/11/17 14:25:05;;;;;;;0.20;0.20;;;7.70;99.90;;;;;;5065069;28;20201;-75
2021/11/17 14:27:31;;;;;;;0.93;0.88;;;7.60;99.90;;;;;;5069082;28;20156;-75
2021/11/17 14:30:03;;;;;;;2.90;2.70;;;7.60;99.90;;;;;;5069083;28;20145;-75
2021/11/17 14:32:34;;;;;;;2.28;0.93;;;7.60;99.90;;;;;;5060053;28;20339;-76
2021/11/17 14:35:01;;;;;;;0.93;0.93;;;7.60;99.90;;;;;;5048969;28;20243;-75
2021/11/17 14:37:28;;;;;;;3.92;1.42;;;7.50;99.90;;;;;;5056783;28;20243;-76
2021/11/17 14:39:54;;;;;;;0.38;0.38;;;7.60;99.90;;;;;;5058076;28;20285;-76
2021/11/17 14:42:20;;;;;;;1.77;1.50;;;7.60;99.90;;;;;;5068860;28;20159;-76
2021/11/17 14:44:46;;;;;;;0.30;0.30;;;7.60;99.90;;;;;;5054315;28;20228;-76
2021/11/17 14:47:15;;;;;;;1.35;1.35;;;7.70;99.90;;;;;;5047421;28;20703;-75
2021/11/17 14:49:42;;;;;;;0.77;0.77;;;7.60;99.90;;;;;;5047991;28;20157;-76
2021/11/17 14:52:14;;;;;;;0.47;0.47;;;7.60;99.90;;;;;;5061641;28;20295;-76
2021/11/17 14:54:41;;;;;;;0.47;0.47;;;7.60;99.90;;;;;;5067217;28;20180;-75
2021/11/17 14:57:08;;;;;;;2.53;1.95;;;7.50;99.90;;;;;;5063860;28;20239;-76
2021/11/17 14:59:35;;;;;;;1.55;1.55;;;7.50;99.90;;;;;;5048538;28;20172;-76
2021/11/17 15:02:02;;;;;;;4.32;2.40;;;7.50;99.90;;;;;;5048538;28;20232;-75
2021/11/17 15:04:28;;;;;;;1.05;1.05;;;7.40;99.90;;;;;;5068545;28;20215;-76
2021/11/17 15:06:54;;;;;;;2.67;1.45;;;7.40;99.90;;;;;;5067248;28;20188;-76
2021/11/17 15:09:20;;;;;;;0.38;0.38;;;7.40;99.90;;;;;;5066961;28;20161;-76
2021/11/17 15:11:51;;;;;;;1.20;1.10;;;7.40;99.90;;;;;;5048537;28;20296;-76
2021/11/17 15:14:19;;;;;;;0.60;0.60;;;7.40;99.90;;;;;;5048540;28;20166;-75
2021/11/17 15:16:46;;;;;;;0.40;0.40;;;7.40;99.90;;;;;;5047185;28;20177;-76
2021/11/17 15:19:12;;;;;;;1.48;1.38;;;7.40;99.90;;;;;;5047473;28;20177;-75
2021/11/17 15:21:38;;;;;;;1.67;1.58;;;7.30;99.90;;;;;;5047136;28;20176;-75
2021/11/17 15:24:04;;;;;;;0.52;0.52;;;7.30;99.90;;;;;;5048224;28;20222;-76
2021/11/17 15:26:30;;;;;;;0.77;0.77;;;7.30;99.90;;;;;;5047296;28;20653;-75
2021/11/17 15:29:00;;;;;;;2.72;0.93;;;7.30;99.90;;;;;;5048474;28;20208;-76
2021/11/17 15:31:30;;;;;;;1.92;1.75;;;7.30;99.90;;;;;;5046773;28;20241;-75
2021/11/17 15:33:56;;;;;;;1.45;1.45;;;7.40;99.90;;;;;;5047095;28;20570;-76
2021/11/17 15:36:24;;;;;;;2.53;1.95;;;7.40;99.90;;;;;;5048336;28;20166;-75
2021/11/17 15:38:52;;;;;;;2.50;1.70;;;7.30;99.90;;;;;;5048159;28;20552;-76
2021/11/17 15:41:21;;;;;;;0.38;0.38;;;7.30;99.90;;;;;;5048092;28;20234;-76
2021/11/17 15:43:49;;;;;;;0.40;0.40;;;7.30;99.90;;;;;;5046778;28;20213;-76
2021/11/17 15:46:16;;;;;;;0.55;0.55;;;7.40;99.90;;;;;;5048385;28;20149;-75
2021/11/17 15:48:42;;;;;;;0.90;0.90;;;7.40;99.90;;;;;;5048184;28;20158;-76
2021/11/17 15:51:31;;;;;;;2.60;2.40;;;7.40;99.90;;;;;;5048228;28;20188;-76
2021/11/17 15:53:58;;;;;;;1.45;1.45;;;7.40;99.90;;;;;;5046706;28;20197;-75
2021/11/17 15:56:26;;;;;;;0.32;0.32;;;7.40;99.90;;;;;;5049344;28;20239;-76
2021/11/17 15:58:53;;;;;;;0.40;0.40;;;7.40;99.90;;;;;;5070439;28;20191;-76
2021/11/17 16:01:19;;;;;;;0.77;0.77;;;7.30;99.90;;;;;;5071636;28;20224;-76
2021/11/17 16:03:52;;;;;;;0.45;0.45;;;7.30;99.90;;;;;;5070265;28;20220;-75
2021/11/17 16:06:20;;;;;;;6.70;3.83;;;7.30;99.90;;;;;;5070453;28;20184;-76